sensor_id;sensor_type;location;lat;lon;timestamp;pressure;altitude;pressure_sealevel;temperature;humidity
38289;BME280;24092;53.370;-6.588;2023-04-25T00:00:30;101200.57;;;4.67;100.00
38289;BME280;24092;53.370;-6.588;2023-04-25T00:02:57;101200.18;;;5.31;100.00
38289;BME280;24092;53.370;-6.588;2023-04-25T00:05:25;101199.30;;;5.81;100.00
38289;BME280;24092;53.370;-6.588;2023-04-25T00:07:53;101199.29;;;2.97;100.00
38289;BME280;24092;53.370;-6.588;2023-04-25T00:10:20;101199.81;;;2.70;100.00
38289;BME280;24092;53.370;-6.588;2023-04-25T00:12:47;101207.75;;;1.62;100.00
38289;BME280;24092;53.370;-6.588;2023-04-25T00:15:14;101207.32;;;0.16;100.00
38289;BME280;24092;53.370;-6.588;2023-04-25T00:17:42;101213.59;;;-0.92;100.00
38289;BME280;24092;53.370;-6.588;2023-04-25T00:20:10;101214.16;;;0.77;100.00
38289;BME280;24092;53.370;-6.588;2023-04-25T00:22:38;101217.14;;;-1.93;100.00
38289;BME280;24092;53.370;-6.588;2023-04-25T00:25:06;101216.77;;;-0.24;100.00
38289;BME280;24092;53.370;-6.588;2023-04-25T00:27:34;101214.61;;;-1.77;100.00
38289;BME280;24092;53.370;-6.588;2023-04-25T00:30:01;101215.28;;;-2.33;100.00
38289;BME280;24092;53.370;-6.588;2023-04-25T00:32:28;101216.46;;;-2.71;100.00
38289;BME280;24092;53.370;-6.588;2023-04-25T00:34:55;101210.05;;;-3.35;100.00
38289;BME280;24092;53.370;-6.588;2023-04-25T00:37:22;101206.75;;;-2.82;100.00
38289;BME280;24092;53.370;-6.588;2023-04-25T00:39:50;101204.77;;;0.14;100.00
38289;BME280;24092;53.370;-6.588;2023-04-25T00:42:17;101204.43;;;1.80;100.00
38289;BME280;24092;53.370;-6.588;2023-04-25T00:44:45;101201.99;;;3.54;100.00
38289;BME280;24092;53.370;-6.588;2023-04-25T00:47:13;101200.06;;;4.00;100.00
38289;BME280;24092;53.370;-6.588;2023-04-25T00:49:41;101198.52;;;4.71;100.00
38289;BME280;24092;53.370;-6.588;2023-04-25T00:52:08;101199.33;;;5.07;100.00
38289;BME280;24092;53.370;-6.588;2023-04-25T00:54:35;101199.28;;;5.03;100.00
38289;BME280;24092;53.370;-6.588;2023-04-25T00:57:03;101195.71;;;4.89;100.00
38289;BME280;24092;53.370;-6.588;2023-04-25T00:59:30;101196.23;;;5.18;100.00
38289;BME280;24092;53.370;-6.588;2023-04-25T01:01:58;101188.22;;;5.31;100.00
38289;BME280;24092;53.370;-6.588;2023-04-25T01:04:26;101184.26;;;5.29;100.00
38289;BME280;24092;53.370;-6.588;2023-04-25T01:06:54;101182.63;;;5.10;100.00
38289;BME280;24092;53.370;-6.588;2023-04-25T01:09:22;101185.44;;;5.33;100.00
38289;BME280;24092;53.370;-6.588;2023-04-25T01:11:49;101187.44;;;4.22;100.00
38289;BME280;24092;53.370;-6.588;2023-04-25T01:14:16;101187.12;;;3.06;100.00
38289;BME280;24092;53.370;-6.588;2023-04-25T01:16:43;101185.30;;;2.40;100.00
38289;BME280;24092;53.370;-6.588;2023-04-25T01:19:11;101185.10;;;3.08;100.00
38289;BME280;24092;53.370;-6.588;2023-04-25T01:21:39;101184.62;;;3.59;100.00
38289;BME280;24092;53.370;-6.588;2023-04-25T01:24:07;101186.45;;;3.99;100.00
38289;BME280;24092;53.370;-6.588;2023-04-25T01:26:34;101182.70;;;5.20;100.00
38289;BME280;24092;53.370;-6.588;2023-04-25T01:29:02;101180.80;;;5.70;100.00
38289;BME280;24092;53.370;-6.588;2023-04-25T01:31:31;101185.08;;;5.75;100.00
38289;BME280;24092;53.370;-6.588;2023-04-25T01:33:58;101186.92;;;5.91;100.00
38289;BME280;24092;53.370;-6.588;2023-04-25T01:36:26;101183.24;;;3.51;100.00
38289;BME280;24092;53.370;-6.588;2023-04-25T01:38:53;101187.22;;;1.27;100.00
38289;BME280;24092;53.370;-6.588;2023-04-25T01:41:20;101187.24;;;-1.43;100.00
38289;BME280;24092;53.370;-6.588;2023-04-25T01:43:47;101187.34;;;-1.33;100.00
38289;BME280;24092;53.370;-6.588;2023-04-25T01:46:14;101187.61;;;-1.56;100.00
38289;BME280;24092;53.370;-6.588;2023-04-25T01:48:41;101188.40;;;-2.03;100.00
38289;BME280;24092;53.370;-6.588;2023-04-25T01:51:09;101188.98;;;-2.02;100.00
38289;BME280;24092;53.370;-6.588;2023-04-25T01:53:36;101194.38;;;-1.45;100.00
38289;BME280;24092;53.370;-6.588;2023-04-25T01:56:03;101197.31;;;-0.37;100.00
38289;BME280;24092;53.370;-6.588;2023-04-25T01:58:31;101199.26;;;-1.32;100.00
38289;BME280;24092;53.370;-6.588;2023-04-25T02:00:58;101197.14;;;-0.31;100.00
38289;BME280;24092;53.370;-6.588;2023-04-25T02:03:25;101199.87;;;1.04;100.00
38289;BME280;24092;53.370;-6.588;2023-04-25T02:05:53;101200.32;;;3.17;100.00
38289;BME280;24092;53.370;-6.588;2023-04-25T02:08:20;101194.42;;;3.79;100.00
38289;BME280;24092;53.370;-6.588;2023-04-25T02:10:47;101192.76;;;4.57;100.00
38289;BME280;24092;53.370;-6.588;2023-04-25T02:13:14;101195.24;;;4.95;100.00
38289;BME280;24092;53.370;-6.588;2023-04-25T02:15:41;101195.19;;;5.03;100.00
38289;BME280;24092;53.370;-6.588;2023-04-25T02:18:08;101193.91;;;4.60;100.00
38289;BME280;24092;53.370;-6.588;2023-04-25T02:20:36;101192.00;;;4.71;100.00
38289;BME280;24092;53.370;-6.588;2023-04-25T02:23:03;101194.00;;;5.26;100.00
38289;BME280;24092;53.370;-6.588;2023-04-25T02:25:30;101190.20;;;5.15;100.00
38289;BME280;24092;53.370;-6.588;2023-04-25T02:27:57;101187.57;;;4.57;100.00
38289;BME280;24092;53.370;-6.588;2023-04-25T02:30:24;101189.86;;;2.84;100.00
38289;BME280;24092;53.370;-6.588;2023-04-25T02:32:51;101193.81;;;1.63;100.00
38289;BME280;24092;53.370;-6.588;2023-04-25T02:35:19;101190.82;;;1.67;100.00
38289;BME280;24092;53.370;-6.588;2023-04-25T02:37:46;101194.35;;;1.73;100.00
38289;BME280;24092;53.370;-6.588;2023-04-25T02:40:13;101192.90;;;3.63;100.00
38289;BME280;24092;53.370;-6.588;2023-04-25T02:42:40;101192.64;;;4.72;100.00
38289;BME280;24092;53.370;-6.588;2023-04-25T02:45:08;101190.78;;;5.43;100.00
38289;BME280;24092;53.370;-6.588;2023-04-25T02:47:35;101191.48;;;3.14;100.00
38289;BME280;24092;53.370;-6.588;2023-04-25T02:50:03;101189.16;;;4.98;100.00
38289;BME280;24092;53.370;-6.588;2023-04-25T02:52:30;101185.56;;;3.11;100.00
38289;BME280;24092;53.370;-6.588;2023-04-25T02:54:58;101181.73;;;2.26;100.00
38289;BME280;24092;53.370;-6.588;2023-04-25T02:57:25;101182.11;;;1.38;100.00
38289;BME280;24092;53.370;-6.588;2023-04-25T02:59:52;101179.76;;;0.83;100.00
38289;BME280;24092;53.370;-6.588;2023-04-25T03:02:19;101179.00;;;0.40;100.00
38289;BME280;24092;53.370;-6.588;2023-04-25T03:04:46;101176.51;;;0.65;100.00
38289;BME280;24092;53.370;-6.588;2023-04-25T03:07:14;101178.67;;;0.93;100.00
38289;BME280;24092;53.370;-6.588;2023-04-25T03:09:41;101180.21;;;1.45;100.00
38289;BME280;24092;53.370;-6.588;2023-04-25T03:12:08;101179.66;;;0.84;100.00
38289;BME280;24092;53.370;-6.588;2023-04-25T03:14:35;101178.83;;;1.02;100.00
38289;BME280;24092;53.370;-6.588;2023-04-25T03:17:02;101177.38;;;0.60;100.00
38289;BME280;24092;53.370;-6.588;2023-04-25T03:19:29;101184.78;;;1.31;100.00
38289;BME280;24092;53.370;-6.588;2023-04-25T03:21:56;101185.92;;;3.03;100.00
38289;BME280;24092;53.370;-6.588;2023-04-25T03:24:24;101191.69;;;2.56;100.00
38289;BME280;24092;53.370;-6.588;2023-04-25T03:26:51;101192.30;;;1.70;100.00
38289;BME280;24092;53.370;-6.588;2023-04-25T03:29:18;101188.87;;;1.11;100.00
38289;BME280;24092;53.370;-6.588;2023-04-25T03:31:45;101187.28;;;0.44;100.00
38289;BME280;24092;53.370;-6.588;2023-04-25T03:34:12;101185.96;;;0.77;100.00
38289;BME280;24092;53.370;-6.588;2023-04-25T03:36:40;101194.05;;;2.53;100.00
38289;BME280;24092;53.370;-6.588;2023-04-25T03:39:07;101191.58;;;3.14;100.00
38289;BME280;24092;53.370;-6.588;2023-04-25T03:41:34;101188.82;;;3.79;100.00
38289;BME280;24092;53.370;-6.588;2023-04-25T03:44:01;101190.98;;;3.67;100.00
38289;BME280;24092;53.370;-6.588;2023-04-25T03:46:28;101192.07;;;3.80;100.00
38289;BME280;24092;53.370;-6.588;2023-04-25T03:48:56;101191.13;;;4.06;100.00
38289;BME280;24092;53.370;-6.588;2023-04-25T03:51:23;101187.43;;;4.16;100.00
38289;BME280;24092;53.370;-6.588;2023-04-25T03:53:51;101186.52;;;3.28;100.00
38289;BME280;24092;53.370;-6.588;2023-04-25T03:56:18;101186.25;;;3.93;100.00
38289;BME280;24092;53.370;-6.588;2023-04-25T03:58:45;101189.38;;;3.58;100.00
38289;BME280;24092;53.370;-6.588;2023-04-25T04:01:12;101186.40;;;3.79;100.00
38289;BME280;24092;53.370;-6.588;2023-04-25T04:03:40;101187.94;;;3.48;100.00
38289;BME280;24092;53.370;-6.588;2023-04-25T04:06:07;101182.92;;;3.48;100.00
38289;BME280;24092;53.370;-6.588;2023-04-25T04:08:35;101184.99;;;3.80;100.00
38289;BME280;24092;53.370;-6.588;2023-04-25T04:11:02;101189.82;;;3.69;100.00
38289;BME280;24092;53.370;-6.588;2023-04-25T04:13:30;101190.81;;;2.70;100.00
38289;BME280;24092;53.370;-6.588;2023-04-25T04:15:57;101189.69;;;2.14;100.00
38289;BME280;24092;53.370;-6.588;2023-04-25T04:18:24;101189.43;;;3.32;100.00
38289;BME280;24092;53.370;-6.588;2023-04-25T04:20:51;101191.61;;;3.01;100.00
38289;BME280;24092;53.370;-6.588;2023-04-25T04:23:19;101186.29;;;1.55;100.00
38289;BME280;24092;53.370;-6.588;2023-04-25T04:25:46;101190.11;;;2.85;100.00
38289;BME280;24092;53.370;-6.588;2023-04-25T04:28:13;101189.69;;;2.81;100.00
38289;BME280;24092;53.370;-6.588;2023-04-25T04:30:40;101193.79;;;2.78;100.00
38289;BME280;24092;53.370;-6.588;2023-04-25T04:33:08;101195.26;;;3.32;100.00
38289;BME280;24092;53.370;-6.588;2023-04-25T04:35:35;101196.03;;;2.00;100.00
38289;BME280;24092;53.370;-6.588;2023-04-25T04:38:02;101193.08;;;3.21;100.00
38289;BME280;24092;53.370;-6.588;2023-04-25T04:40:29;101200.89;;;3.07;100.00
38289;BME280;24092;53.370;-6.588;2023-04-25T04:42:57;101202.94;;;3.03;100.00
38289;BME280;24092;53.370;-6.588;2023-04-25T04:45:24;101203.05;;;3.42;100.00
38289;BME280;24092;53.370;-6.588;2023-04-25T04:47:51;101206.79;;;3.41;100.00
38289;BME280;24092;53.370;-6.588;2023-04-25T04:50:18;101205.84;;;3.46;100.00
38289;BME280;24092;53.370;-6.588;2023-04-25T04:52:46;101207.25;;;3.01;100.00
38289;BME280;24092;53.370;-6.588;2023-04-25T04:55:13;101211.12;;;2.34;100.00
38289;BME280;24092;53.370;-6.588;2023-04-25T04:57:40;101212.44;;;2.93;100.00
38289;BME280;24092;53.370;-6.588;2023-04-25T05:00:09;101207.08;;;2.65;100.00
38289;BME280;24092;53.370;-6.588;2023-04-25T05:02:36;101209.23;;;2.45;100.00
38289;BME280;24092;53.370;-6.588;2023-04-25T05:05:04;101210.01;;;3.09;100.00
38289;BME280;24092;53.370;-6.588;2023-04-25T05:07:31;101210.07;;;3.42;100.00
38289;BME280;24092;53.370;-6.588;2023-04-25T05:09:58;101214.37;;;2.94;100.00
38289;BME280;24092;53.370;-6.588;2023-04-25T05:12:25;101216.31;;;2.97;100.00
38289;BME280;24092;53.370;-6.588;2023-04-25T05:14:53;101217.95;;;2.61;100.00
38289;BME280;24092;53.370;-6.588;2023-04-25T05:17:20;101224.38;;;2.98;100.00
38289;BME280;24092;53.370;-6.588;2023-04-25T05:19:47;101226.38;;;3.01;100.00
38289;BME280;24092;53.370;-6.588;2023-04-25T05:22:14;101225.29;;;2.94;100.00
38289;BME280;24092;53.370;-6.588;2023-04-25T05:24:41;101224.12;;;2.74;100.00
38289;BME280;24092;53.370;-6.588;2023-04-25T05:27:09;101221.63;;;2.76;100.00
38289;BME280;24092;53.370;-6.588;2023-04-25T05:29:36;101221.31;;;2.88;100.00
38289;BME280;24092;53.370;-6.588;2023-04-25T05:32:04;101224.44;;;3.14;100.00
38289;BME280;24092;53.370;-6.588;2023-04-25T05:34:31;101224.85;;;2.58;100.00
38289;BME280;24092;53.370;-6.588;2023-04-25T05:36:59;101226.13;;;2.51;100.00
38289;BME280;24092;53.370;-6.588;2023-04-25T05:39:26;101225.07;;;2.35;100.00
38289;BME280;24092;53.370;-6.588;2023-04-25T05:41:53;101226.56;;;1.87;100.00
38289;BME280;24092;53.370;-6.588;2023-04-25T05:44:21;101228.32;;;1.76;100.00
38289;BME280;24092;53.370;-6.588;2023-04-25T05:46:48;101226.37;;;1.97;100.00
38289;BME280;24092;53.370;-6.588;2023-04-25T05:49:15;101224.32;;;2.12;100.00
38289;BME280;24092;53.370;-6.588;2023-04-25T05:51:42;101227.41;;;2.58;100.00
38289;BME280;24092;53.370;-6.588;2023-04-25T05:54:10;101228.57;;;2.13;100.00
38289;BME280;24092;53.370;-6.588;2023-04-25T05:56:37;101231.84;;;2.81;100.00
38289;BME280;24092;53.370;-6.588;2023-04-25T05:59:04;101232.75;;;2.51;100.00
38289;BME280;24092;53.370;-6.588;2023-04-25T06:01:31;101231.71;;;2.97;100.00
38289;BME280;24092;53.370;-6.588;2023-04-25T06:03:58;101231.75;;;3.01;100.00
38289;BME280;24092;53.370;-6.588;2023-04-25T06:06:25;101232.19;;;2.37;100.00
38289;BME280;24092;53.370;-6.588;2023-04-25T06:08:53;101234.73;;;2.48;100.00
38289;BME280;24092;53.370;-6.588;2023-04-25T06:11:20;101235.20;;;3.49;100.00
38289;BME280;24092;53.370;-6.588;2023-04-25T06:13:47;101239.64;;;2.98;100.00
38289;BME280;24092;53.370;-6.588;2023-04-25T06:16:14;101237.09;;;3.71;100.00
38289;BME280;24092;53.370;-6.588;2023-04-25T06:18:42;101236.12;;;4.41;100.00
38289;BME280;24092;53.370;-6.588;2023-04-25T06:21:09;101233.32;;;6.18;100.00
38289;BME280;24092;53.370;-6.588;2023-04-25T06:23:36;101234.58;;;6.32;100.00
38289;BME280;24092;53.370;-6.588;2023-04-25T06:26:03;101238.49;;;7.11;100.00
38289;BME280;24092;53.370;-6.588;2023-04-25T06:28:30;101240.56;;;8.04;100.00
38289;BME280;24092;53.370;-6.588;2023-04-25T06:30:57;101238.65;;;7.94;100.00
38289;BME280;24092;53.370;-6.588;2023-04-25T06:33:24;101238.45;;;7.75;100.00
38289;BME280;24092;53.370;-6.588;2023-04-25T06:35:52;101236.40;;;8.33;100.00
38289;BME280;24092;53.370;-6.588;2023-04-25T06:38:19;101234.35;;;8.73;100.00
38289;BME280;24092;53.370;-6.588;2023-04-25T06:40:46;101235.02;;;8.76;97.00
38289;BME280;24092;53.370;-6.588;2023-04-25T06:43:13;101237.89;;;9.27;99.55
38289;BME280;24092;53.370;-6.588;2023-04-25T06:45:40;101230.87;;;9.25;95.09
38289;BME280;24092;53.370;-6.588;2023-04-25T06:48:07;101230.11;;;8.86;94.08
38289;BME280;24092;53.370;-6.588;2023-04-25T06:50:34;101230.52;;;8.08;95.22
38289;BME280;24092;53.370;-6.588;2023-04-25T06:53:01;101226.60;;;8.63;96.81
38289;BME280;24092;53.370;-6.588;2023-04-25T06:55:28;101225.41;;;9.29;94.44
38289;BME280;24092;53.370;-6.588;2023-04-25T06:57:55;101220.61;;;9.24;90.99
38289;BME280;24092;53.370;-6.588;2023-04-25T07:00:23;101223.10;;;9.28;90.65
38289;BME280;24092;53.370;-6.588;2023-04-25T07:02:50;101224.96;;;10.01;92.92
38289;BME280;24092;53.370;-6.588;2023-04-25T07:05:17;101224.27;;;10.87;93.71
38289;BME280;24092;53.370;-6.588;2023-04-25T07:07:44;101226.50;;;10.92;86.55
38289;BME280;24092;53.370;-6.588;2023-04-25T07:10:11;101223.36;;;11.28;84.77
38289;BME280;24092;53.370;-6.588;2023-04-25T07:12:39;101226.19;;;11.54;85.85
38289;BME280;24092;53.370;-6.588;2023-04-25T07:15:07;101224.02;;;12.70;82.68
38289;BME280;24092;53.370;-6.588;2023-04-25T07:17:34;101222.17;;;12.64;76.13
38289;BME280;24092;53.370;-6.588;2023-04-25T07:20:02;101226.35;;;12.43;75.19
38289;BME280;24092;53.370;-6.588;2023-04-25T07:22:28;101227.66;;;11.74;81.98
38289;BME280;24092;53.370;-6.588;2023-04-25T07:24:55;101227.35;;;12.24;81.27
38289;BME280;24092;53.370;-6.588;2023-04-25T07:27:22;101221.26;;;12.20;75.03
38289;BME280;24092;53.370;-6.588;2023-04-25T07:29:49;101221.43;;;13.23;70.73
38289;BME280;24092;53.370;-6.588;2023-04-25T07:36:07;101227.15;;;10.89;72.84
38289;BME280;24092;53.370;-6.588;2023-04-25T07:38:34;101222.56;;;12.45;70.63
38289;BME280;24092;53.370;-6.588;2023-04-25T07:41:01;101217.30;;;12.62;76.01
38289;BME280;24092;53.370;-6.588;2023-04-25T07:43:28;101218.68;;;11.44;71.07
38289;BME280;24092;53.370;-6.588;2023-04-25T07:45:56;101216.85;;;11.85;80.00
38289;BME280;24092;53.370;-6.588;2023-04-25T07:48:24;101220.54;;;10.89;73.55
38289;BME280;24092;53.370;-6.588;2023-04-25T07:50:51;101224.84;;;6.95;81.09
38289;BME280;24092;53.370;-6.588;2023-04-25T07:53:18;101223.56;;;4.36;88.17
38289;BME280;24092;53.370;-6.588;2023-04-25T07:55:45;101223.00;;;6.35;95.50
38289;BME280;24092;53.370;-6.588;2023-04-25T07:58:12;101219.19;;;7.60;92.30
38289;BME280;24092;53.370;-6.588;2023-04-25T08:00:39;101220.14;;;9.08;92.81
38289;BME280;24092;53.370;-6.588;2023-04-25T08:03:06;101213.80;;;8.01;84.99
38289;BME280;24092;53.370;-6.588;2023-04-25T08:05:33;101214.38;;;6.42;88.41
38289;BME280;24092;53.370;-6.588;2023-04-25T08:08:00;101223.21;;;5.52;96.31
38289;BME280;24092;53.370;-6.588;2023-04-25T08:10:27;101220.39;;;6.79;96.84
38289;BME280;24092;53.370;-6.588;2023-04-25T08:12:54;101221.47;;;8.71;89.21
38289;BME280;24092;53.370;-6.588;2023-04-25T08:15:20;101227.09;;;9.02;90.61
38289;BME280;24092;53.370;-6.588;2023-04-25T08:17:47;101226.22;;;6.76;92.60
38289;BME280;24092;53.370;-6.588;2023-04-25T08:20:14;101222.46;;;7.22;97.23
38289;BME280;24092;53.370;-6.588;2023-04-25T08:22:42;101221.16;;;9.29;95.46
38289;BME280;24092;53.370;-6.588;2023-04-25T08:25:09;101227.90;;;6.85;94.65
38289;BME280;24092;53.370;-6.588;2023-04-25T08:27:36;101230.44;;;6.62;99.39
38289;BME280;24092;53.370;-6.588;2023-04-25T08:30:04;101232.06;;;7.34;100.00
38289;BME280;24092;53.370;-6.588;2023-04-25T08:32:31;101228.65;;;10.62;94.78
38289;BME280;24092;53.370;-6.588;2023-04-25T08:34:57;101227.71;;;8.70;94.10
38289;BME280;24092;53.370;-6.588;2023-04-25T08:37:24;101233.79;;;6.58;100.00
38289;BME280;24092;53.370;-6.588;2023-04-25T08:39:51;101235.45;;;5.79;100.00
38289;BME280;24092;53.370;-6.588;2023-04-25T08:42:19;101233.35;;;5.04;100.00
38289;BME280;24092;53.370;-6.588;2023-04-25T08:44:48;101234.18;;;4.93;100.00
38289;BME280;24092;53.370;-6.588;2023-04-25T08:47:18;101234.17;;;3.72;100.00
38289;BME280;24092;53.370;-6.588;2023-04-25T08:49:46;101228.64;;;5.33;100.00
38289;BME280;24092;53.370;-6.588;2023-04-25T08:52:14;101228.47;;;5.16;100.00
38289;BME280;24092;53.370;-6.588;2023-04-25T08:54:42;101230.47;;;3.72;100.00
38289;BME280;24092;53.370;-6.588;2023-04-25T08:57:11;101229.15;;;3.67;100.00
38289;BME280;24092;53.370;-6.588;2023-04-25T08:59:39;101231.62;;;4.52;100.00
38289;BME280;24092;53.370;-6.588;2023-04-25T09:02:07;101229.99;;;5.21;100.00
38289;BME280;24092;53.370;-6.588;2023-04-25T09:04:34;101230.21;;;3.96;100.00
38289;BME280;24092;53.370;-6.588;2023-04-25T09:07:02;101234.83;;;3.50;100.00
38289;BME280;24092;53.370;-6.588;2023-04-25T09:09:29;101233.66;;;3.64;100.00
38289;BME280;24092;53.370;-6.588;2023-04-25T09:11:57;101236.25;;;4.21;100.00
38289;BME280;24092;53.370;-6.588;2023-04-25T09:14:24;101233.15;;;7.38;100.00
38289;BME280;24092;53.370;-6.588;2023-04-25T09:17:02;101236.05;;;4.14;100.00
38289;BME280;24092;53.370;-6.588;2023-04-25T09:19:30;101238.70;;;4.32;100.00
38289;BME280;24092;53.370;-6.588;2023-04-25T09:22:00;101235.39;;;5.38;100.00
38289;BME280;24092;53.370;-6.588;2023-04-25T09:24:33;101234.83;;;6.16;100.00
38289;BME280;24092;53.370;-6.588;2023-04-25T09:27:02;101234.00;;;8.87;100.00
38289;BME280;24092;53.370;-6.588;2023-04-25T09:29:30;101237.63;;;9.68;100.00
38289;BME280;24092;53.370;-6.588;2023-04-25T09:32:17;101235.08;;;10.92;93.56
38289;BME280;24092;53.370;-6.588;2023-04-25T09:34:47;101239.51;;;11.15;90.46
38289;BME280;24092;53.370;-6.588;2023-04-25T09:37:17;101239.07;;;8.37;87.63
38289;BME280;24092;53.370;-6.588;2023-04-25T09:39:45;101236.46;;;8.37;92.35
38289;BME280;24092;53.370;-6.588;2023-04-25T09:42:13;101236.49;;;10.74;88.00
38289;BME280;24092;53.370;-6.588;2023-04-25T09:44:43;101237.09;;;7.87;87.43
38289;BME280;24092;53.370;-6.588;2023-04-25T09:47:11;101235.93;;;9.73;92.11
38289;BME280;24092;53.370;-6.588;2023-04-25T09:49:40;101243.28;;;6.95;100.00
38289;BME280;24092;53.370;-6.588;2023-04-25T09:52:08;101244.60;;;3.93;100.00
38289;BME280;24092;53.370;-6.588;2023-04-25T09:54:35;101247.79;;;2.90;100.00
38289;BME280;24092;53.370;-6.588;2023-04-25T09:57:10;101249.81;;;4.06;100.00
38289;BME280;24092;53.370;-6.588;2023-04-25T09:59:39;101248.16;;;4.00;100.00
38289;BME280;24092;53.370;-6.588;2023-04-25T10:02:09;101246.79;;;1.69;100.00
38289;BME280;24092;53.370;-6.588;2023-04-25T10:04:38;101240.33;;;1.18;100.00
38289;BME280;24092;53.370;-6.588;2023-04-25T10:07:07;101245.78;;;1.66;100.00
38289;BME280;24092;53.370;-6.588;2023-04-25T10:09:37;101240.19;;;5.79;100.00
38289;BME280;24092;53.370;-6.588;2023-04-25T10:12:05;101244.27;;;6.49;100.00
38289;BME280;24092;53.370;-6.588;2023-04-25T10:14:34;101236.91;;;8.54;96.40
38289;BME280;24092;53.370;-6.588;2023-04-25T10:17:02;101237.91;;;8.53;90.41
38289;BME280;24092;53.370;-6.588;2023-04-25T10:19:29;101240.85;;;5.37;94.63
38289;BME280;24092;53.370;-6.588;2023-04-25T10:22:03;101235.33;;;7.66;93.90
38289;BME280;24092;53.370;-6.588;2023-04-25T10:24:31;101235.10;;;8.21;94.00
38289;BME280;24092;53.370;-6.588;2023-04-25T10:26:58;101233.16;;;8.14;92.75
38289;BME280;24092;53.370;-6.588;2023-04-25T10:29:26;101240.79;;;9.77;86.58
38289;BME280;24092;53.370;-6.588;2023-04-25T10:31:53;101236.40;;;9.39;86.03
38289;BME280;24092;53.370;-6.588;2023-04-25T10:34:37;101236.91;;;3.23;100.00
38289;BME280;24092;53.370;-6.588;2023-04-25T10:37:04;101242.13;;;6.09;100.00
38289;BME280;24092;53.370;-6.588;2023-04-25T10:39:32;101240.22;;;6.95;96.93
38289;BME280;24092;53.370;-6.588;2023-04-25T10:42:02;101238.63;;;8.74;94.79
38289;BME280;24092;53.370;-6.588;2023-04-25T10:44:30;101238.04;;;9.92;91.33
38289;BME280;24092;53.370;-6.588;2023-04-25T10:47:00;101234.63;;;9.50;88.96
38289;BME280;24092;53.370;-6.588;2023-04-25T10:49:32;101231.76;;;9.81;88.41
38289;BME280;24092;53.370;-6.588;2023-04-25T10:52:17;101228.56;;;9.81;84.59
38289;BME280;24092;53.370;-6.588;2023-04-25T10:54:48;101234.03;;;6.53;88.26
38289;BME280;24092;53.370;-6.588;2023-04-25T10:57:37;101234.70;;;4.81;96.22
38289;BME280;24092;53.370;-6.588;2023-04-25T11:00:08;101236.61;;;6.61;98.36
38289;BME280;24092;53.370;-6.588;2023-04-25T11:02:41;101234.59;;;4.12;100.00
38289;BME280;24092;53.370;-6.588;2023-04-25T11:05:08;101235.03;;;2.82;100.00
38289;BME280;24092;53.370;-6.588;2023-04-25T11:07:41;101233.79;;;3.07;100.00
38289;BME280;24092;53.370;-6.588;2023-04-25T11:10:11;101231.05;;;6.43;100.00
38289;BME280;24092;53.370;-6.588;2023-04-25T11:12:38;101223.01;;;9.10;90.70
38289;BME280;24092;53.370;-6.588;2023-04-25T11:15:07;101230.67;;;4.83;96.26
38289;BME280;24092;53.370;-6.588;2023-04-25T11:17:34;101228.56;;;3.27;100.00
38289;BME280;24092;53.370;-6.588;2023-04-25T11:20:02;101226.46;;;5.39;100.00
38289;BME280;24092;53.370;-6.588;2023-04-25T11:22:29;101224.67;;;8.01;95.01
38289;BME280;24092;53.370;-6.588;2023-04-25T11:24:56;101224.35;;;6.64;93.46
38289;BME280;24092;53.370;-6.588;2023-04-25T11:27:23;101222.79;;;9.34;86.99
38289;BME280;24092;53.370;-6.588;2023-04-25T11:29:50;101225.02;;;6.57;91.52
38289;BME280;24092;53.370;-6.588;2023-04-25T11:32:18;101225.16;;;3.93;92.55
38289;BME280;24092;53.370;-6.588;2023-04-25T11:34:46;101224.54;;;3.05;100.00
38289;BME280;24092;53.370;-6.588;2023-04-25T11:37:14;101219.16;;;6.20;97.16
38289;BME280;24092;53.370;-6.588;2023-04-25T11:39:44;101216.00;;;5.55;94.39
38289;BME280;24092;53.370;-6.588;2023-04-25T11:42:12;101208.87;;;5.08;94.42
38289;BME280;24092;53.370;-6.588;2023-04-25T11:44:40;101206.71;;;7.62;89.24
38289;BME280;24092;53.370;-6.588;2023-04-25T11:47:07;101210.00;;;4.90;89.28
38289;BME280;24092;53.370;-6.588;2023-04-25T11:49:35;101203.31;;;8.73;86.39
38289;BME280;24092;53.370;-6.588;2023-04-25T11:52:02;101205.50;;;9.65;83.79
38289;BME280;24092;53.370;-6.588;2023-04-25T11:54:30;101208.10;;;3.90;97.38
38289;BME280;24092;53.370;-6.588;2023-04-25T11:56:56;101202.41;;;8.21;88.41
38289;BME280;24092;53.370;-6.588;2023-04-25T11:59:24;101200.94;;;9.22;87.78
38289;BME280;24092;53.370;-6.588;2023-04-25T12:01:51;101203.12;;;4.69;93.13
38289;BME280;24092;53.370;-6.588;2023-04-25T12:04:20;101200.50;;;7.51;88.17
38289;BME280;24092;53.370;-6.588;2023-04-25T12:06:49;101202.18;;;4.17;93.72
38289;BME280;24092;53.370;-6.588;2023-04-25T12:09:19;101201.90;;;3.15;100.00
38289;BME280;24092;53.370;-6.588;2023-04-25T12:11:48;101198.62;;;3.11;100.00
38289;BME280;24092;53.370;-6.588;2023-04-25T12:14:22;101198.86;;;2.97;98.51
38289;BME280;24092;53.370;-6.588;2023-04-25T12:16:50;101201.54;;;2.96;100.00
38289;BME280;24092;53.370;-6.588;2023-04-25T12:19:19;101202.96;;;2.39;100.00
38289;BME280;24092;53.370;-6.588;2023-04-25T12:21:47;101199.29;;;2.68;100.00
38289;BME280;24092;53.370;-6.588;2023-04-25T12:24:15;101196.84;;;4.49;100.00
38289;BME280;24092;53.370;-6.588;2023-04-25T12:26:47;101195.75;;;6.24;98.06
38289;BME280;24092;53.370;-6.588;2023-04-25T12:29:19;101192.54;;;4.46;99.10
38289;BME280;24092;53.370;-6.588;2023-04-25T12:31:46;101193.14;;;3.66;100.00
38289;BME280;24092;53.370;-6.588;2023-04-25T12:34:13;101191.08;;;4.33;97.46
38289;BME280;24092;53.370;-6.588;2023-04-25T12:36:40;101192.55;;;4.59;97.72
38289;BME280;24092;53.370;-6.588;2023-04-25T12:39:08;101188.25;;;5.12;90.44
38289;BME280;24092;53.370;-6.588;2023-04-25T12:41:35;101193.94;;;6.66;91.61
38289;BME280;24092;53.370;-6.588;2023-04-25T12:44:02;101188.59;;;4.57;95.65
38289;BME280;24092;53.370;-6.588;2023-04-25T12:46:29;101187.32;;;3.99;98.08
38289;BME280;24092;53.370;-6.588;2023-04-25T12:48:55;101184.21;;;4.72;95.82